Aviation Digital Data Service (ADDS)

Output produced by METARs form (2234 UTC 30 March 2017)
found at http://www.aviationweather.gov/adds/metars/
 
OBBI 302200Z 29013KT 8000 -RA FEW050CB 24/20 Q1015 TEMPO 28020G30KT 5000 TSRA SCT050CB
TAF OBBI 301700Z 3018/0100 03005KT CAVOK 
     PROB30 
     TEMPO 3018/3118 36015G35KT 5000 TSRA SCT050CB